createdAt,value
2023-05-11T00:01:54.071Z,94.61
2023-05-11T00:04:21.309Z,94.28
2023-05-11T00:06:48.472Z,94.19
2023-05-11T00:09:15.540Z,94.59
2023-05-11T00:11:42.655Z,94.49
2023-05-11T00:14:09.783Z,95.31
2023-05-11T00:16:36.869Z,94.40
2023-05-11T00:19:04.060Z,94.10
2023-05-11T00:21:32.359Z,94.45
2023-05-11T00:23:59.452Z,95.06
2023-05-11T00:26:26.900Z,93.69
2023-05-11T00:28:54.105Z,92.30
2023-05-11T00:31:21.310Z,92.40
2023-05-11T00:33:48.631Z,92.60
2023-05-11T00:36:15.751Z,90.71
2023-05-11T00:38:42.877Z,90.13
2023-05-11T00:41:10.036Z,91.40
2023-05-11T00:43:37.143Z,91.63
2023-05-11T00:46:05.159Z,92.52
2023-05-11T00:48:32.608Z,93.08
2023-05-11T00:51:00.582Z,93.83
2023-05-11T00:53:27.893Z,94.07
2023-05-11T00:55:55.144Z,94.65
2023-05-11T00:58:22.754Z,95.42
2023-05-11T01:00:50.542Z,95.23
2023-05-11T01:03:18.469Z,95.53
2023-05-11T01:06:04.466Z,96.24
2023-05-11T01:08:41.516Z,95.62
2023-05-11T01:11:14.407Z,95.23
2023-05-11T01:13:53.436Z,95.81
2023-05-11T01:16:24.667Z,95.93
2023-05-11T01:19:25.182Z,96.46
2023-05-11T01:21:53.084Z,95.78
2023-05-11T01:24:50.628Z,96.28
2023-05-11T01:27:35.898Z,95.95
2023-05-11T01:30:24.062Z,96.28
2023-05-11T01:32:53.978Z,96.14
2023-05-11T01:35:23.757Z,95.69
2023-05-11T01:37:54.411Z,95.35
2023-05-11T01:40:34.313Z,95.22
2023-05-11T01:43:07.788Z,95.76
2023-05-11T01:45:41.198Z,95.80
2023-05-11T01:48:14.724Z,94.76
2023-05-11T01:50:42.509Z,96.48
2023-05-11T01:53:12.083Z,95.55
2023-05-11T01:55:41.225Z,95.46
2023-05-11T01:58:11.322Z,95.88
2023-05-11T02:00:39.343Z,96.09
2023-05-11T02:03:08.504Z,97.70
2023-05-11T02:05:36.748Z,97.37
2023-05-11T02:08:05.730Z,96.59
2023-05-11T02:10:34.534Z,97.46
2023-05-11T02:13:05.399Z,95.41
2023-05-11T02:15:36.897Z,97.05
2023-05-11T02:18:07.164Z,96.50
2023-05-11T02:20:35.833Z,96.89
2023-05-11T02:23:03.656Z,96.58
2023-05-11T02:25:32.049Z,96.53
2023-05-11T02:27:59.204Z,95.46
2023-05-11T02:30:29.647Z,94.69
2023-05-11T02:32:59.347Z,94.11
2023-05-11T02:35:30.064Z,92.17
2023-05-11T02:38:01.592Z,93.04
2023-05-11T02:40:34.696Z,93.48
2023-05-11T02:43:14.049Z,94.55
2023-05-11T02:45:50.975Z,95.85
2023-05-11T02:48:24.955Z,96.76
2023-05-11T02:50:56.114Z,95.16
2023-05-11T02:53:28.448Z,95.12
2023-05-11T02:55:56.503Z,93.85
2023-05-11T02:58:24.235Z,93.37
2023-05-11T03:01:00.488Z,92.55
2023-05-11T03:03:28.154Z,93.14
2023-05-11T03:05:55.418Z,92.27
2023-05-11T03:08:22.617Z,91.16
2023-05-11T03:10:52.515Z,91.40
2023-05-11T03:13:22.492Z,91.73
2023-05-11T03:15:51.548Z,91.03
2023-05-11T03:18:19.418Z,90.02
2023-05-11T03:20:47.845Z,89.79
2023-05-11T03:23:17.104Z,88.62
2023-05-11T03:25:45.685Z,88.55
2023-05-11T03:28:14.618Z,88.21
2023-05-11T03:30:49.806Z,88.84
2023-05-11T03:33:17.217Z,88.27
2023-05-11T03:35:46.795Z,87.29
2023-05-11T03:38:21.549Z,87.33
2023-05-11T03:40:52.614Z,89.51
2023-05-11T03:43:22.240Z,88.63
2023-05-11T03:45:54.235Z,88.77
2023-05-11T03:48:23.404Z,86.36
2023-05-11T03:50:52.371Z,88.64
2023-05-11T03:53:20.276Z,89.64
2023-05-11T03:55:47.450Z,88.89
2023-05-11T03:58:15.198Z,87.99
2023-05-11T04:00:43.334Z,86.99
2023-05-11T04:03:11.012Z,86.27
2023-05-11T04:05:39.215Z,85.72
2023-05-11T04:08:11.166Z,85.45
2023-05-11T04:10:38.572Z,85.78
2023-05-11T04:13:05.849Z,86.55
2023-05-11T04:15:33.015Z,85.56
2023-05-11T04:18:00.247Z,84.79
2023-05-11T04:20:27.552Z,84.63
2023-05-11T04:22:54.814Z,86.23
2023-05-11T04:25:22.009Z,87.92
2023-05-11T04:27:49.134Z,86.86
2023-05-11T04:30:16.374Z,87.04
2023-05-11T04:32:43.579Z,85.63
2023-05-11T04:35:10.753Z,84.41
2023-05-11T04:37:39.466Z,82.39
2023-05-11T04:40:09.326Z,83.42
2023-05-11T04:42:40.542Z,84.04
2023-05-11T04:45:12.308Z,82.79
2023-05-11T04:47:40.043Z,80.84
2023-05-11T04:50:08.756Z,80.73
2023-05-11T04:52:36.608Z,81.26
2023-05-11T04:55:04.165Z,78.64
2023-05-11T04:57:31.550Z,78.97
2023-05-11T04:59:58.876Z,80.71
2023-05-11T05:02:26.216Z,79.04
2023-05-11T05:04:53.368Z,78.17
2023-05-11T05:07:21.037Z,78.60
2023-05-11T05:09:48.145Z,79.69
2023-05-11T05:12:15.925Z,79.62
2023-05-11T05:14:43.533Z,79.83
2023-05-11T05:17:10.881Z,79.64
2023-05-11T05:19:39.663Z,79.23
2023-05-11T05:22:06.862Z,78.52
2023-05-11T05:24:34.367Z,75.50
2023-05-11T05:27:02.973Z,74.37
2023-05-11T05:29:30.539Z,74.38
2023-05-11T05:32:00.002Z,72.70
2023-05-11T05:34:28.037Z,71.91
2023-05-11T05:36:55.186Z,73.95
2023-05-11T05:39:22.209Z,74.84
2023-05-11T05:41:49.498Z,69.10
2023-05-11T05:44:16.702Z,67.51
2023-05-11T05:46:44.432Z,68.71
2023-05-11T05:49:12.410Z,68.50
2023-05-11T05:51:39.770Z,69.20
2023-05-11T05:54:07.067Z,68.85
2023-05-11T05:56:35.228Z,68.16
2023-05-11T05:59:02.475Z,68.54
2023-05-11T06:01:30.627Z,66.99
2023-05-11T06:03:58.779Z,66.23
2023-05-11T06:06:26.206Z,65.24
2023-05-11T06:08:53.916Z,66.56
2023-05-11T06:11:21.959Z,66.10
2023-05-11T06:13:49.644Z,66.28
2023-05-11T06:16:16.876Z,65.59
2023-05-11T06:18:44.215Z,65.63
2023-05-11T06:21:11.345Z,65.08
2023-05-11T06:23:38.510Z,63.88
2023-05-11T06:26:05.711Z,65.03
2023-05-11T06:28:33.791Z,63.74
2023-05-11T06:31:04.615Z,64.66
2023-05-11T06:33:35.373Z,62.87
2023-05-11T06:36:06.180Z,60.21
2023-05-11T06:38:33.448Z,59.62
2023-05-11T06:41:00.834Z,60.66
2023-05-11T06:43:27.981Z,61.01
2023-05-11T06:45:55.228Z,61.89
2023-05-11T06:48:26.088Z,62.67
2023-05-11T06:50:53.238Z,63.64
2023-05-11T06:53:20.500Z,63.49
2023-05-11T06:55:47.911Z,63.51
2023-05-11T06:58:15.079Z,63.75
2023-05-11T07:00:42.165Z,64.00
2023-05-11T07:03:09.218Z,65.17
2023-05-11T07:05:37.431Z,63.69
2023-05-11T07:08:05.097Z,63.56
2023-05-11T07:10:32.622Z,66.00
2023-05-11T07:12:59.602Z,66.79
2023-05-11T07:15:26.549Z,67.69
2023-05-11T07:17:53.748Z,65.12
2023-05-11T07:20:21.077Z,63.00
2023-05-11T07:22:48.533Z,65.33
2023-05-11T07:25:15.700Z,61.95
2023-05-11T07:27:42.930Z,62.31
2023-05-11T07:30:10.301Z,63.22
2023-05-11T07:32:37.324Z,60.44
2023-05-11T07:35:04.488Z,57.65
2023-05-11T07:37:31.629Z,58.09
2023-05-11T07:39:58.690Z,57.61
2023-05-11T07:42:25.728Z,58.74
2023-05-11T07:44:52.713Z,60.31
2023-05-11T07:47:21.137Z,58.92
2023-05-11T07:49:48.775Z,59.93
2023-05-11T07:52:16.271Z,59.37
2023-05-11T07:54:43.837Z,60.19
2023-05-11T07:57:14.110Z,57.61
2023-05-11T07:59:41.287Z,57.46
2023-05-11T08:02:11.436Z,57.09
2023-05-11T08:04:40.827Z,59.66
2023-05-11T08:07:09.125Z,59.92
2023-05-11T08:09:36.977Z,60.51
2023-05-11T08:12:04.193Z,61.71
2023-05-11T08:14:31.355Z,62.53
2023-05-11T08:16:58.381Z,62.24
2023-05-11T08:19:25.644Z,57.89
2023-05-11T08:21:52.691Z,58.80
2023-05-11T08:24:19.714Z,60.24
2023-05-11T08:26:47.375Z,61.10
2023-05-11T08:29:14.397Z,62.34
2023-05-11T08:31:41.548Z,59.29
2023-05-11T08:34:18.708Z,59.13
2023-05-11T08:36:47.333Z,62.22
2023-05-11T08:39:14.731Z,59.44
2023-05-11T08:41:43.702Z,59.21
2023-05-11T08:44:11.258Z,60.32
2023-05-11T08:46:42.213Z,57.58
2023-05-11T08:49:09.554Z,55.55
2023-05-11T08:51:36.580Z,56.01
2023-05-11T08:54:03.800Z,54.64
2023-05-11T08:56:32.186Z,55.95
2023-05-11T08:58:59.515Z,56.55
2023-05-11T09:01:29.219Z,54.63
2023-05-11T09:03:57.629Z,53.34
2023-05-11T09:06:26.928Z,52.02
2023-05-11T09:08:55.002Z,53.49
2023-05-11T09:11:23.002Z,53.93
2023-05-11T09:13:50.470Z,55.10
2023-05-11T09:16:35.612Z,53.56
2023-05-11T09:19:04.497Z,56.22
2023-05-11T09:21:32.150Z,54.95
2023-05-11T09:23:59.636Z,54.44
2023-05-11T09:26:29.401Z,53.64
2023-05-11T09:31:45.238Z,51.31
2023-05-11T09:34:13.796Z,51.46
2023-05-11T09:36:45.157Z,50.19
2023-05-11T09:39:16.694Z,51.32
2023-05-11T09:41:44.064Z,53.22
2023-05-11T09:44:17.098Z,52.24
2023-05-11T10:17:37.904Z,56.12
2023-05-11T10:20:06.757Z,57.04
2023-05-11T10:22:33.973Z,55.54
2023-05-11T10:25:03.028Z,56.36
2023-05-11T10:27:32.035Z,56.17
2023-05-11T10:29:59.944Z,52.52
2023-05-11T10:32:28.686Z,51.66
2023-05-11T10:34:57.211Z,51.02
2023-05-11T10:37:24.455Z,50.10
2023-05-11T10:39:52.492Z,49.88
2023-05-11T10:42:25.461Z,50.81
2023-05-11T10:45:21.617Z,48.28
2023-05-11T10:48:31.329Z,48.65
2023-05-11T10:51:35.847Z,48.48
2023-05-11T10:54:34.383Z,49.17
2023-05-11T10:57:11.230Z,48.61
2023-05-11T11:00:10.172Z,48.19
2023-05-11T11:02:38.199Z,48.49
2023-05-11T11:05:09.072Z,48.20
2023-05-11T11:08:04.034Z,50.20
2023-05-11T11:10:34.753Z,48.41
2023-05-11T11:13:03.672Z,48.36
2023-05-11T11:16:09.606Z,48.92
2023-05-11T11:18:36.920Z,47.35
2023-05-11T11:21:04.753Z,48.31
2023-05-11T11:23:43.004Z,47.67
2023-05-11T11:26:12.451Z,49.08
2023-05-11T11:28:54.254Z,48.79
2023-05-11T11:31:30.393Z,48.99
2023-05-11T11:34:01.132Z,50.74
2023-05-11T11:36:55.986Z,48.26
2023-05-11T11:39:25.569Z,49.86
2023-05-11T11:42:07.365Z,49.79
2023-05-11T11:44:35.083Z,48.24
2023-05-11T11:47:19.921Z,51.44
2023-05-11T11:49:48.660Z,51.75
2023-05-11T11:52:31.227Z,48.77
2023-05-11T11:55:00.260Z,51.45
2023-05-11T11:57:33.305Z,52.01
2023-05-11T12:00:10.633Z,49.71
2023-05-11T12:02:45.531Z,50.79
2023-05-11T12:05:23.374Z,49.84
2023-05-11T12:07:52.642Z,51.63
2023-05-11T12:10:21.746Z,51.40
2023-05-11T12:12:50.713Z,50.33
2023-05-11T12:15:34.640Z,51.72
2023-05-11T12:18:03.403Z,53.27
2023-05-11T12:20:30.529Z,51.94
2023-05-11T12:22:57.570Z,51.97
2023-05-11T12:25:24.758Z,51.54
2023-05-11T12:27:58.287Z,53.81
2023-05-11T12:30:27.384Z,53.60
2023-05-11T12:32:57.778Z,52.66
2023-05-11T12:35:27.152Z,55.03
2023-05-11T12:37:55.026Z,56.75
2023-05-11T12:40:22.249Z,54.24
2023-05-11T12:42:54.252Z,56.18
2023-05-11T12:45:23.602Z,53.64
2023-05-11T12:47:55.534Z,55.46
2023-05-11T12:50:23.086Z,56.09
2023-05-11T12:52:50.638Z,54.32
2023-05-11T12:55:28.610Z,54.72
2023-05-11T12:58:08.870Z,53.01
2023-05-11T13:00:36.225Z,52.09
2023-05-11T13:03:04.128Z,54.96
2023-05-11T13:05:31.252Z,54.98
2023-05-11T13:08:03.939Z,52.68
2023-05-11T13:10:31.848Z,52.89
2023-05-11T13:12:59.309Z,52.60
2023-05-11T13:15:28.649Z,52.32
2023-05-11T13:17:58.720Z,52.05
2023-05-11T13:20:29.786Z,52.24
2023-05-11T13:23:06.082Z,53.53
2023-05-11T13:25:35.128Z,53.26
2023-05-11T13:28:02.256Z,52.20
2023-05-11T13:30:29.331Z,51.46
2023-05-11T13:32:56.636Z,49.76
2023-05-11T13:35:23.682Z,50.35
2023-05-11T13:37:50.759Z,50.25
2023-05-11T13:40:17.955Z,49.02
2023-05-11T13:42:44.929Z,47.69
2023-05-11T13:45:12.331Z,47.45
2023-05-11T13:47:39.325Z,47.48
2023-05-11T13:50:07.320Z,48.92
2023-05-11T13:52:34.396Z,51.16
2023-05-11T13:55:01.471Z,53.15
2023-05-11T13:57:28.552Z,49.92
2023-05-11T13:59:55.613Z,53.10
2023-05-11T14:02:22.793Z,52.01
2023-05-11T14:04:49.912Z,52.61
2023-05-11T14:07:17.255Z,53.95
2023-05-11T14:09:44.384Z,54.01
2023-05-11T14:12:11.515Z,52.82
2023-05-11T14:14:38.662Z,52.71
2023-05-11T14:17:06.462Z,52.71
2023-05-11T14:19:33.712Z,54.35
2023-05-11T14:22:01.255Z,54.28
2023-05-11T14:24:28.368Z,55.59
2023-05-11T14:26:55.411Z,55.35
2023-05-11T14:29:22.496Z,54.76
2023-05-11T14:31:50.143Z,54.43
2023-05-11T14:34:17.258Z,53.53
2023-05-11T14:36:44.438Z,53.86
2023-05-11T14:39:11.528Z,56.91
2023-05-11T14:41:38.675Z,57.21
2023-05-11T14:44:05.814Z,51.21
2023-05-11T14:46:32.927Z,52.89
2023-05-11T14:49:00.055Z,55.11
2023-05-11T14:51:27.195Z,57.70
2023-05-11T14:53:54.329Z,56.53
2023-05-11T14:56:23.499Z,57.85
2023-05-11T14:58:50.640Z,57.14
2023-05-11T15:01:17.859Z,57.91
2023-05-11T15:03:45.154Z,56.68
2023-05-11T15:06:21.092Z,56.70
2023-05-11T15:08:49.644Z,58.78
2023-05-11T15:11:17.733Z,58.87
2023-05-11T15:13:47.670Z,59.84
2023-05-11T15:16:15.054Z,58.36
2023-05-11T15:18:43.069Z,55.81
2023-05-11T15:21:10.294Z,56.97
2023-05-11T15:23:37.433Z,57.52
2023-05-11T15:26:04.745Z,59.12
2023-05-11T15:28:31.901Z,59.33
2023-05-11T15:30:58.979Z,60.61
2023-05-11T15:33:26.195Z,61.35
2023-05-11T15:35:53.368Z,61.75
2023-05-11T15:38:21.002Z,61.89
2023-05-11T15:40:48.065Z,61.32
2023-05-11T15:43:15.266Z,62.80
2023-05-11T15:45:42.406Z,63.89
2023-05-11T15:48:09.862Z,61.75
2023-05-11T15:50:37.088Z,62.23
2023-05-11T15:53:04.247Z,61.91
2023-05-11T15:55:31.356Z,63.56
2023-05-11T15:57:58.431Z,62.29
2023-05-11T16:00:25.659Z,60.62
2023-05-11T16:02:53.537Z,60.68
2023-05-11T16:05:20.809Z,61.46
2023-05-11T16:07:47.904Z,63.66
2023-05-11T16:10:15.486Z,63.07
2023-05-11T16:12:42.658Z,62.95
2023-05-11T16:15:10.432Z,63.74
2023-05-11T16:17:37.648Z,65.37
2023-05-11T16:20:05.270Z,64.68
2023-05-11T16:22:32.433Z,63.63
2023-05-11T16:24:59.663Z,65.18
2023-05-11T16:27:26.851Z,65.07
2023-05-11T16:29:53.915Z,64.72
2023-05-11T16:32:21.010Z,65.53
2023-05-11T16:34:48.100Z,68.01
2023-05-11T16:37:15.660Z,70.08
2023-05-11T16:39:42.957Z,70.04
2023-05-11T16:42:10.697Z,71.67
2023-05-11T16:44:37.855Z,70.89
2023-05-11T16:47:05.822Z,70.52
2023-05-11T16:49:32.933Z,69.55
2023-05-11T16:52:00.900Z,69.03
2023-05-11T16:54:28.168Z,68.64
2023-05-11T16:56:55.290Z,69.25
2023-05-11T16:59:22.546Z,70.27
2023-05-11T17:01:49.861Z,69.78
2023-05-11T17:04:17.196Z,72.62
2023-05-11T17:06:44.382Z,72.73
2023-05-11T17:09:11.805Z,74.06
2023-05-11T17:11:38.917Z,76.78
2023-05-11T17:14:06.204Z,76.64
2023-05-11T17:16:33.656Z,75.95
2023-05-11T17:19:00.796Z,76.39
2023-05-11T17:21:28.956Z,76.41
2023-05-11T17:23:56.147Z,77.42
2023-05-11T17:26:27.236Z,78.62
2023-05-11T17:28:56.946Z,77.02
2023-05-11T17:31:24.563Z,78.81
2023-05-11T17:33:51.692Z,78.34
2023-05-11T17:36:18.826Z,80.26
2023-05-11T17:38:45.952Z,79.82
2023-05-11T17:41:14.160Z,78.49
2023-05-11T17:43:41.298Z,78.27
2023-05-11T17:46:08.598Z,79.28
2023-05-11T17:48:35.749Z,79.92
2023-05-11T17:51:02.905Z,78.13
2023-05-11T17:53:30.207Z,78.57
2023-05-11T17:56:00.711Z,79.03
2023-05-11T17:58:27.810Z,79.06
2023-05-11T18:00:54.910Z,78.80
2023-05-11T18:03:22.246Z,78.93
2023-05-11T18:05:50.623Z,80.10
2023-05-11T18:08:17.796Z,79.28
2023-05-11T18:10:44.933Z,78.71
2023-05-11T18:13:12.096Z,78.95
2023-05-11T18:15:39.512Z,77.93
2023-05-11T18:18:06.825Z,78.96
2023-05-11T18:20:34.749Z,80.41
2023-05-11T18:23:02.083Z,80.94
2023-05-11T18:25:32.004Z,80.82
2023-05-11T18:28:02.631Z,79.54
2023-05-11T18:30:33.531Z,79.69
2023-05-11T18:33:00.740Z,80.18
2023-05-11T18:35:28.127Z,79.55
2023-05-11T18:37:55.549Z,79.94
2023-05-11T18:40:23.228Z,81.08
2023-05-11T18:42:53.175Z,81.82
2023-05-11T18:45:20.393Z,82.50
2023-05-11T18:47:47.663Z,83.79
2023-05-11T18:50:14.908Z,83.86
2023-05-11T18:52:42.370Z,84.54
2023-05-11T18:55:10.325Z,85.28
2023-05-11T18:57:39.592Z,84.37
2023-05-11T19:00:10.146Z,84.31
2023-05-11T19:02:37.406Z,83.99
2023-05-11T19:05:04.740Z,82.82
2023-05-11T19:07:32.125Z,83.94
2023-05-11T19:10:00.090Z,84.53
2023-05-11T19:12:27.506Z,83.98
2023-05-11T19:14:57.492Z,85.13
2023-05-11T19:17:24.661Z,87.12
2023-05-11T19:19:52.459Z,86.79
2023-05-11T19:22:21.479Z,86.76
2023-05-11T19:24:48.649Z,86.82
2023-05-11T19:27:16.074Z,86.44
2023-05-11T19:29:43.391Z,85.78
2023-05-11T19:32:10.666Z,85.34
2023-05-11T19:34:37.804Z,86.01
2023-05-11T19:37:05.079Z,86.48
2023-05-11T19:39:32.314Z,86.25
2023-05-11T19:42:00.496Z,85.39
2023-05-11T19:44:28.587Z,86.71
2023-05-11T19:46:55.713Z,86.97
2023-05-11T19:49:22.840Z,86.67
2023-05-11T19:51:50.090Z,87.02
2023-05-11T19:54:17.389Z,87.46
2023-05-11T19:56:44.480Z,87.99
2023-05-11T19:59:11.789Z,88.88
2023-05-11T20:01:38.917Z,88.96
2023-05-11T20:04:06.188Z,89.71
2023-05-11T20:06:33.542Z,89.46
2023-05-11T20:09:00.684Z,90.81
2023-05-11T20:11:28.662Z,90.66
2023-05-11T20:13:55.818Z,91.35
2023-05-11T20:16:23.139Z,91.48
2023-05-11T20:18:50.389Z,90.09
2023-05-11T20:21:17.519Z,89.48
2023-05-11T20:23:44.626Z,90.39
2023-05-11T20:26:11.715Z,90.10
2023-05-11T20:28:39.730Z,89.83
2023-05-11T20:31:07.196Z,89.70
2023-05-11T20:36:04.836Z,90.87
2023-05-11T20:38:32.748Z,89.85
2023-05-11T20:40:59.959Z,90.76
2023-05-11T20:43:27.333Z,90.13
2023-05-11T20:45:55.016Z,91.19
2023-05-11T20:48:32.445Z,90.99
2023-05-11T20:51:06.641Z,91.35
2023-05-11T20:53:33.833Z,88.90
2023-05-11T20:56:02.747Z,89.66
2023-05-11T20:58:31.758Z,90.14
2023-05-11T21:00:59.162Z,91.50
2023-05-11T21:03:27.816Z,91.04
2023-05-11T21:05:56.451Z,91.28
2023-05-11T21:08:23.643Z,89.87
2023-05-11T21:10:50.801Z,89.38
2023-05-11T21:13:17.944Z,90.16
2023-05-11T21:15:45.035Z,90.24
2023-05-11T21:18:12.290Z,90.82
2023-05-11T21:20:39.399Z,91.66
2023-05-11T21:23:06.492Z,92.16
2023-05-11T21:25:33.647Z,92.42
2023-05-11T21:28:05.042Z,93.00
2023-05-11T21:30:32.294Z,94.35
2023-05-11T21:32:59.494Z,94.39
2023-05-11T21:35:26.667Z,95.88
2023-05-11T21:37:54.286Z,96.17
2023-05-11T21:40:21.724Z,96.33
2023-05-11T21:42:49.238Z,96.23
2023-05-11T21:45:16.409Z,96.29
2023-05-11T21:47:43.595Z,96.38
2023-05-11T21:50:11.408Z,97.00
2023-05-11T21:52:39.100Z,96.82
2023-05-11T21:55:06.717Z,96.68
2023-05-11T21:57:33.916Z,97.23
2023-05-11T22:00:01.051Z,97.01
2023-05-11T22:02:28.570Z,97.72
2023-05-11T22:04:55.805Z,96.92
2023-05-11T22:07:23.525Z,97.31
2023-05-11T22:09:50.966Z,97.85
2023-05-11T22:12:18.254Z,97.01
2023-05-11T22:14:45.948Z,97.45
2023-05-11T22:17:13.117Z,97.37
2023-05-11T22:19:40.385Z,96.95
2023-05-11T22:22:07.525Z,97.82
2023-05-11T22:24:34.658Z,97.81
2023-05-11T22:27:02.091Z,98.79
2023-05-11T22:29:29.201Z,98.70
2023-05-11T22:31:56.369Z,98.63
2023-05-11T22:34:23.526Z,99.72
2023-05-11T22:36:50.702Z,99.40
2023-05-11T22:39:17.887Z,99.37
2023-05-11T22:41:45.083Z,99.09
2023-05-11T22:44:12.345Z,99.45
2023-05-11T22:46:39.438Z,99.69
2023-05-11T22:49:06.539Z,99.86
2023-05-11T22:51:33.622Z,100.00
2023-05-11T22:54:00.810Z,100.00
2023-05-11T22:56:28.419Z,100.00
2023-05-11T22:58:57.306Z,100.00
2023-05-11T23:01:24.413Z,100.00
2023-05-11T23:03:51.629Z,100.00
2023-05-11T23:06:18.792Z,100.00
2023-05-11T23:08:45.928Z,100.00
2023-05-11T23:11:13.201Z,100.00
2023-05-11T23:13:41.577Z,100.00
2023-05-11T23:16:10.502Z,100.00
2023-05-11T23:18:37.864Z,100.00
2023-05-11T23:21:05.447Z,100.00
2023-05-11T23:23:32.834Z,100.00
2023-05-11T23:25:59.916Z,100.00
2023-05-11T23:28:27.066Z,100.00
2023-05-11T23:30:54.112Z,100.00
2023-05-11T23:33:21.313Z,100.00
2023-05-11T23:35:48.623Z,100.00
2023-05-11T23:38:15.758Z,100.00
2023-05-11T23:40:43.275Z,100.00
2023-05-11T23:43:10.450Z,100.00
2023-05-11T23:45:37.768Z,100.00
2023-05-11T23:48:05.386Z,100.00
2023-05-11T23:50:32.546Z,100.00
2023-05-11T23:52:59.688Z,100.00
2023-05-11T23:55:26.781Z,100.00
2023-05-11T23:57:54.552Z,100.00
